Time;durP1;ratioP1;P1;durP2;ratioP2;P2;SDS_P1;SDS_P2;PMS_P1;PMS_P2;Temp;Humidity;BMP_temperature;BMP_pressure;BME280_temperature;BME280_humidity;BME280_pressure;Samples;Min_cycle;Max_cycle;Signal;HPM_P1;HPM_P2
2022/04/19 00:01:18;;;;;;;2.78;2.03;;;9.70;92.90;;;;;;5095189;28;20028;-79
2022/04/19 00:03:43;;;;;;;6.00;2.03;;;9.70;92.90;;;;;;5093722;28;20166;-79
2022/04/19 00:06:09;;;;;;;2.97;1.80;;;9.70;92.80;;;;;;5093399;28;20482;-80
2022/04/19 00:08:35;;;;;;;3.97;2.13;;;9.80;92.40;;;;;;5093817;28;20127;-80
2022/04/19 00:11:03;;;;;;;4.10;2.30;;;9.80;92.30;;;;;;5093013;28;20089;-80
2022/04/19 00:13:29;;;;;;;6.32;2.13;;;9.80;92.60;;;;;;5093822;28;20028;-80
2022/04/19 00:15:56;;;;;;;3.78;2.13;;;9.80;93.60;;;;;;5093129;28;20024;-80
2022/04/19 00:18:22;;;;;;;3.35;1.80;;;9.90;94.40;;;;;;5094592;28;20020;-80
2022/04/19 00:20:49;;;;;;;3.03;2.00;;;9.90;95.00;;;;;;5093567;28;20024;-80
2022/04/19 00:23:15;;;;;;;4.32;1.90;;;9.90;95.40;;;;;;5093131;28;20035;-80
2022/04/19 00:25:47;;;;;;;5.13;1.98;;;9.90;95.50;;;;;;5093389;28;20027;-80
2022/04/19 00:28:13;;;;;;;5.35;1.70;;;9.90;96.00;;;;;;5093998;28;20028;-80
2022/04/19 00:30:40;;;;;;;2.92;1.92;;;9.90;96.20;;;;;;5093430;28;20055;-79
2022/04/19 00:33:07;;;;;;;3.45;1.88;;;9.90;96.80;;;;;;5092846;28;20062;-80
2022/04/19 00:35:33;;;;;;;3.92;1.52;;;9.90;97.40;;;;;;5093841;28;20114;-80
2022/04/19 00:37:59;;;;;;;3.15;1.75;;;9.90;97.70;;;;;;5093625;28;20028;-80
2022/04/19 00:40:25;;;;;;;3.55;1.90;;;9.80;97.60;;;;;;5093453;28;20028;-79
2022/04/19 00:42:54;;;;;;;3.65;1.70;;;9.80;97.50;;;;;;5093645;28;20385;-80
2022/04/19 00:45:20;;;;;;;3.42;2.00;;;9.70;97.70;;;;;;5093483;28;20046;-80
2022/04/19 00:47:46;;;;;;;2.00;1.67;;;9.70;97.40;;;;;;5093432;28;20020;-80
2022/04/19 00:50:11;;;;;;;4.80;1.83;;;9.70;97.40;;;;;;5093981;28;20024;-80
2022/04/19 00:52:38;;;;;;;4.95;1.77;;;9.60;97.60;;;;;;5093400;28;20024;-80
2022/04/19 00:55:07;;;;;;;3.13;1.88;;;9.50;97.30;;;;;;5092762;28;20020;-81
2022/04/19 00:57:34;;;;;;;4.00;2.22;;;9.40;97.20;;;;;;5093140;28;20052;-81
2022/04/19 01:00:00;;;;;;;2.47;1.75;;;9.30;97.80;;;;;;5092637;28;20111;-81
2022/04/19 01:02:26;;;;;;;3.42;1.77;;;9.30;97.90;;;;;;5094372;28;20067;-81
2022/04/19 01:04:55;;;;;;;2.38;1.70;;;9.30;97.90;;;;;;5093181;28;20073;-81
2022/04/19 01:07:22;;;;;;;2.65;1.60;;;9.20;98.10;;;;;;5092722;28;20114;-81
2022/04/19 01:09:48;;;;;;;3.20;1.80;;;9.20;98.30;;;;;;5093984;28;20016;-81
2022/04/19 01:15:09;;;;;;;3.88;1.70;;;9.20;98.70;;;;;;5093687;28;20056;-81
2022/04/19 01:17:40;;;;;;;4.05;2.03;;;9.10;99.10;;;;;;5092848;28;20491;-82
2022/04/19 01:20:08;;;;;;;3.70;1.98;;;9.00;98.90;;;;;;5092823;28;20031;-82
2022/04/19 01:22:38;;;;;;;3.13;1.73;;;9.00;98.80;;;;;;5093165;28;20431;-82
2022/04/19 01:25:05;;;;;;;4.22;1.92;;;9.00;99.00;;;;;;5093474;28;20031;-82
2022/04/19 01:27:31;;;;;;;3.83;2.00;;;9.00;99.10;;;;;;5093457;28;20043;-82
2022/04/19 01:30:01;;;;;;;3.58;1.67;;;8.90;99.10;;;;;;5094129;28;20405;-81
2022/04/19 01:32:30;;;;;;;3.00;2.05;;;8.90;99.00;;;;;;5092953;28;20023;-81
2022/04/19 01:35:13;;;;;;;6.00;2.00;;;8.80;98.80;;;;;;5092894;28;20028;-82
2022/04/19 01:37:49;;;;;;;5.45;2.28;;;8.80;98.10;;;;;;5092758;28;20111;-82
2022/04/19 01:40:19;;;;;;;2.83;1.52;;;8.80;97.40;;;;;;5092018;28;20029;-82
2022/04/19 01:42:58;;;;;;;4.65;2.15;;;8.80;97.30;;;;;;5092498;28;20032;-82
2022/04/19 01:45:29;;;;;;;3.95;2.13;;;8.80;97.40;;;;;;5094009;28;20024;-82
2022/04/19 01:47:59;;;;;;;3.60;1.92;;;8.80;97.50;;;;;;5096013;28;20133;-81
2022/04/19 01:50:27;;;;;;;3.20;1.70;;;8.80;97.30;;;;;;5096886;28;20100;-82
2022/04/19 01:52:54;;;;;;;4.60;1.80;;;8.80;97.40;;;;;;5096610;28;20039;-82
2022/04/19 01:55:21;;;;;;;3.20;1.80;;;8.80;97.50;;;;;;5096093;28;20025;-82
2022/04/19 01:57:54;;;;;;;4.75;1.80;;;8.80;97.20;;;;;;5095816;28;20056;-82
2022/04/19 02:00:22;;;;;;;3.45;2.00;;;8.80;97.00;;;;;;5096173;28;20050;-81
2022/04/19 02:02:48;;;;;;;4.00;1.80;;;8.70;97.30;;;;;;5096177;28;20032;-82
2022/04/19 02:05:15;;;;;;;2.78;1.90;;;8.70;97.70;;;;;;5095692;28;20093;-80
2022/04/19 02:07:42;;;;;;;2.90;1.45;;;8.50;97.40;;;;;;5096330;28;20032;-81
2022/04/19 02:10:10;;;;;;;5.60;1.73;;;8.50;97.90;;;;;;5095486;28;20054;-81
2022/04/19 02:12:36;;;;;;;4.63;1.98;;;8.50;98.00;;;;;;5096490;28;20027;-81
2022/04/19 02:15:03;;;;;;;3.03;1.95;;;8.50;97.70;;;;;;5095761;28;20028;-79
2022/04/19 02:17:28;;;;;;;3.78;1.80;;;8.50;97.50;;;;;;5095824;28;20031;-79
2022/04/19 02:20:03;;;;;;;3.63;1.98;;;8.50;97.30;;;;;;5095756;28;20024;-78
2022/04/19 02:22:30;;;;;;;3.85;2.00;;;8.40;97.60;;;;;;5096931;28;20035;-81
2022/04/19 02:24:56;;;;;;;5.55;2.25;;;8.30;97.60;;;;;;5095922;28;20098;-81
2022/04/19 02:27:24;;;;;;;5.68;2.15;;;8.20;97.70;;;;;;5095306;28;20479;-82
2022/04/19 02:29:51;;;;;;;4.15;1.83;;;8.20;97.70;;;;;;5095930;28;20485;-82
2022/04/19 02:32:17;;;;;;;3.72;1.83;;;8.20;97.40;;;;;;5095495;28;20427;-81
2022/04/19 02:34:42;;;;;;;3.65;2.08;;;8.20;97.50;;;;;;5096890;28;20028;-81
2022/04/19 02:37:08;;;;;;;4.13;2.35;;;8.10;97.70;;;;;;5096455;28;20032;-80
2022/04/19 02:39:36;;;;;;;3.08;2.00;;;8.20;97.50;;;;;;5095805;28;20028;-80
2022/04/19 02:42:03;;;;;;;2.92;1.85;;;8.20;97.30;;;;;;5095040;28;20039;-81
2022/04/19 02:44:29;;;;;;;3.63;2.00;;;8.20;97.20;;;;;;5095476;28;20085;-80
2022/04/19 02:46:55;;;;;;;3.75;2.20;;;8.20;97.50;;;;;;5096368;28;20016;-80
2022/04/19 02:49:21;;;;;;;3.22;2.10;;;8.10;97.50;;;;;;5095042;28;20045;-80
2022/04/19 02:51:47;;;;;;;5.15;2.20;;;8.00;97.90;;;;;;5095340;28;20027;-81
2022/04/19 02:54:13;;;;;;;3.20;1.75;;;7.90;98.00;;;;;;5094779;28;20028;-81
2022/04/19 02:56:39;;;;;;;4.43;2.20;;;7.90;98.00;;;;;;5094418;28;20090;-80
2022/04/19 02:59:04;;;;;;;3.38;2.10;;;7.90;98.00;;;;;;5094405;28;20051;-80
2022/04/19 03:01:30;;;;;;;3.38;1.80;;;7.80;98.30;;;;;;5095370;28;20024;-80
2022/04/19 03:03:57;;;;;;;2.55;1.63;;;7.80;98.30;;;;;;5094972;28;20032;-80
2022/04/19 03:06:23;;;;;;;3.75;2.00;;;7.70;98.60;;;;;;5094281;28;20559;-81
2022/04/19 03:08:49;;;;;;;6.60;2.15;;;7.70;98.70;;;;;;5095031;28;20024;-81
2022/04/19 03:11:15;;;;;;;3.25;2.08;;;7.60;98.80;;;;;;5094431;28;20031;-80
2022/04/19 03:13:40;;;;;;;3.47;2.10;;;7.60;98.70;;;;;;5095749;28;20051;-81
2022/04/19 03:16:06;;;;;;;4.10;1.77;;;7.60;98.90;;;;;;5094310;28;20020;-81
2022/04/19 03:18:32;;;;;;;6.32;2.03;;;7.60;99.10;;;;;;5095738;28;20059;-81
2022/04/19 03:21:01;;;;;;;2.58;1.85;;;7.60;99.50;;;;;;5094515;28;20027;-81
2022/04/19 03:28:55;;;;;;;3.70;2.10;;;7.40;99.40;;;;;;5095483;28;20078;-81
2022/04/19 03:31:24;;;;;;;4.55;1.90;;;7.50;99.20;;;;;;5094023;28;20453;-81
2022/04/19 03:33:53;;;;;;;3.15;2.00;;;7.50;99.00;;;;;;5095300;28;20103;-81
2022/04/19 03:36:22;;;;;;;5.70;1.77;;;7.50;98.90;;;;;;5093782;28;20106;-81
2022/04/19 03:38:47;;;;;;;3.72;2.08;;;7.50;99.10;;;;;;5094373;28;20024;-81
2022/04/19 03:41:14;;;;;;;4.88;2.03;;;7.50;99.10;;;;;;5093842;28;20457;-81
2022/04/19 03:43:41;;;;;;;3.85;1.92;;;7.50;99.20;;;;;;5093968;28;20032;-80
2022/04/19 03:46:09;;;;;;;3.17;1.90;;;7.50;99.30;;;;;;5094653;28;20051;-80
2022/04/19 03:48:35;;;;;;;2.85;2.05;;;7.40;99.40;;;;;;5094137;28;20035;-80
2022/04/19 03:51:03;;;;;;;7.82;2.45;;;7.40;99.50;;;;;;5095472;28;20510;-79
2022/04/19 03:53:29;;;;;;;4.93;2.10;;;7.30;99.50;;;;;;5094921;28;20051;-80
2022/04/19 03:55:55;;;;;;;3.33;1.85;;;7.30;99.70;;;;;;5094081;28;20024;-80
2022/04/19 03:58:20;;;;;;;4.05;2.10;;;7.30;99.60;;;;;;5094603;28;20059;-80
2022/04/19 04:00:46;;;;;;;3.72;2.10;;;7.20;99.80;;;;;;5095168;28;20020;-80
2022/04/19 04:03:12;;;;;;;4.57;2.33;;;7.20;99.90;;;;;;5076639;28;20093;-80
2022/04/19 04:05:38;;;;;;;5.00;2.58;;;7.10;99.90;;;;;;5095107;28;20028;-79
2022/04/19 04:08:04;;;;;;;4.57;2.08;;;7.00;99.90;;;;;;5095181;28;20064;-80
2022/04/19 04:10:30;;;;;;;3.10;2.20;;;7.00;99.90;;;;;;5093030;28;20020;-80
2022/04/19 04:12:58;;;;;;;3.65;2.10;;;7.00;99.90;;;;;;5095105;28;20072;-80
2022/04/19 04:15:24;;;;;;;3.85;2.25;;;7.00;99.90;;;;;;5093449;28;20480;-81
2022/04/19 04:17:49;;;;;;;3.80;1.60;;;7.00;99.90;;;;;;5093525;28;20024;-81
2022/04/19 04:20:15;;;;;;;4.37;2.30;;;7.00;99.90;;;;;;5092830;28;20178;-81
2022/04/19 04:22:40;;;;;;;3.57;2.00;;;6.90;99.90;;;;;;5093694;28;20036;-81
2022/04/19 04:25:07;;;;;;;2.30;1.73;;;6.90;99.90;;;;;;5094624;28;20147;-81
2022/04/19 04:27:32;;;;;;;3.00;2.00;;;6.90;99.90;;;;;;5094782;28;20035;-82
2022/04/19 04:29:58;;;;;;;3.95;2.25;;;6.90;99.90;;;;;;5093629;28;20025;-82
2022/04/19 04:32:23;;;;;;;4.15;1.95;;;6.80;99.90;;;;;;5093123;28;20028;-81
2022/04/19 04:34:49;;;;;;;3.67;2.10;;;6.60;99.90;;;;;;5093756;28;20032;-81
2022/04/19 04:37:15;;;;;;;4.78;2.20;;;6.40;99.90;;;;;;5093076;28;20028;-81
2022/04/19 04:39:40;;;;;;;3.00;1.80;;;6.40;99.90;;;;;;5093951;28;20031;-81
2022/04/19 04:42:06;;;;;;;2.93;1.90;;;6.40;99.90;;;;;;5094015;28;20078;-81
2022/04/19 04:44:32;;;;;;;4.10;2.20;;;6.50;99.90;;;;;;5092535;28;20372;-81
2022/04/19 04:49:41;;;;;;;3.77;2.00;;;6.60;99.90;;;;;;5094345;28;20097;-82
2022/04/19 04:52:09;;;;;;;4.00;2.17;;;6.60;99.90;;;;;;5093184;28;20032;-82
2022/04/19 04:54:39;;;;;;;3.43;1.90;;;6.60;99.90;;;;;;5094227;28;20028;-83
2022/04/19 04:57:05;;;;;;;4.10;2.27;;;6.60;99.90;;;;;;5094248;28;20100;-82
2022/04/19 04:59:33;;;;;;;5.07;2.10;;;6.60;99.90;;;;;;5092963;28;20111;-82
2022/04/19 05:02:00;;;;;;;3.20;1.87;;;6.60;99.90;;;;;;5092959;28;20040;-81
2022/04/19 05:04:25;;;;;;;4.53;2.00;;;6.60;99.90;;;;;;5092617;28;20031;-81
2022/04/19 05:06:51;;;;;;;5.93;2.37;;;6.70;99.90;;;;;;5093282;28;20032;-84
2022/04/19 05:09:17;;;;;;;4.10;2.20;;;6.70;99.90;;;;;;5092887;28;20454;-83
2022/04/19 05:11:46;;;;;;;3.37;2.07;;;6.60;99.90;;;;;;5093085;28;20035;-82
2022/04/19 05:14:12;;;;;;;3.80;2.00;;;6.70;99.90;;;;;;5092447;28;20098;-82
2022/04/19 05:16:38;;;;;;;3.67;2.00;;;6.70;99.90;;;;;;5093050;28;20024;-82
2022/04/19 05:19:04;;;;;;;3.07;2.00;;;6.70;99.90;;;;;;5093071;28;20081;-83
2022/04/19 05:21:30;;;;;;;4.77;2.10;;;6.70;99.90;;;;;;5096505;28;20020;-82
2022/04/19 05:23:56;;;;;;;3.53;2.10;;;6.70;99.90;;;;;;5098042;28;20082;-82
2022/04/19 05:26:24;;;;;;;5.00;2.33;;;6.70;99.90;;;;;;5096805;28;20077;-82
2022/04/19 05:28:50;;;;;;;2.80;2.07;;;6.60;99.90;;;;;;5097255;28;20035;-81
2022/04/19 05:31:16;;;;;;;2.63;2.00;;;6.60;99.90;;;;;;5097611;28;20020;-81
2022/04/19 05:33:41;;;;;;;3.17;2.00;;;6.70;99.90;;;;;;5096999;28;20024;-80
2022/04/19 05:36:07;;;;;;;5.73;2.17;;;6.70;99.90;;;;;;5096934;28;20496;-80
2022/04/19 05:38:33;;;;;;;5.03;2.30;;;6.70;99.90;;;;;;5096178;28;20457;-80
2022/04/19 05:40:58;;;;;;;3.77;2.23;;;6.80;99.90;;;;;;5097823;28;20027;-82
2022/04/19 05:43:25;;;;;;;3.47;1.90;;;6.80;99.90;;;;;;5096138;28;20172;-81
2022/04/19 05:45:50;;;;;;;4.43;2.37;;;6.80;99.90;;;;;;5096815;28;20028;-81
2022/04/19 05:48:16;;;;;;;4.50;2.47;;;6.80;99.90;;;;;;5096213;28;20484;-81
2022/04/19 05:50:42;;;;;;;3.20;2.30;;;6.80;99.90;;;;;;5096841;28;20032;-81
2022/04/19 05:53:08;;;;;;;3.83;2.43;;;6.90;99.90;;;;;;5097645;28;20074;-80
2022/04/19 05:55:34;;;;;;;4.40;2.83;;;6.90;99.90;;;;;;5095909;28;20032;-80
2022/04/19 05:57:59;;;;;;;5.43;2.83;;;7.00;99.90;;;;;;5095794;28;20127;-80
2022/04/19 06:00:25;;;;;;;5.30;2.60;;;7.00;99.90;;;;;;5095927;28;20376;-81
2022/04/19 06:05:35;;;;;;;4.00;2.47;;;7.10;99.90;;;;;;5096819;28;20093;-81
2022/04/19 06:08:01;;;;;;;5.17;2.70;;;7.10;99.90;;;;;;5096161;28;20477;-80
2022/04/19 06:10:27;;;;;;;8.40;2.60;;;7.10;99.90;;;;;;5095611;28;20077;-80
2022/04/19 06:12:52;;;;;;;5.82;2.30;;;7.20;99.90;;;;;;5096194;28;20036;-81
2022/04/19 06:15:18;;;;;;;4.15;2.38;;;7.40;99.90;;;;;;5096765;28;20323;-81
2022/04/19 06:17:44;;;;;;;4.82;2.47;;;7.50;99.90;;;;;;5097200;28;20461;-81
2022/04/19 06:20:10;;;;;;;6.25;2.90;;;7.50;99.90;;;;;;5096180;28;20358;-80
2022/04/19 06:22:36;;;;;;;6.18;2.60;;;7.50;99.90;;;;;;5096453;28;20053;-81
2022/04/19 06:25:03;;;;;;;3.88;2.80;;;7.60;99.90;;;;;;5095848;28;20457;-81
2022/04/19 06:27:28;;;;;;;4.43;2.47;;;7.50;99.90;;;;;;5095261;28;20031;-81
2022/04/19 06:29:57;;;;;;;5.35;2.50;;;7.60;99.90;;;;;;5095797;28;20024;-81
2022/04/19 06:32:22;;;;;;;5.07;2.97;;;7.60;99.90;;;;;;5094284;28;20043;-82
2022/04/19 06:34:53;;;;;;;3.95;2.58;;;7.70;99.90;;;;;;5096890;28;20032;-82
2022/04/19 06:37:19;;;;;;;3.75;2.80;;;7.80;99.90;;;;;;5095142;28;20063;-81
2022/04/19 06:39:45;;;;;;;5.88;2.83;;;7.90;99.90;;;;;;5096693;28;20075;-82
2022/04/19 06:42:11;;;;;;;6.30;3.15;;;8.00;99.60;;;;;;5096521;28;20040;-81
2022/04/19 06:44:37;;;;;;;5.10;2.58;;;8.00;99.70;;;;;;5095010;28;20028;-81
2022/04/19 06:47:03;;;;;;;3.70;2.38;;;8.10;99.80;;;;;;5095642;28;20028;-81
2022/04/19 06:49:29;;;;;;;5.80;2.47;;;8.20;99.40;;;;;;5095739;28;20016;-82
2022/04/19 06:51:54;;;;;;;6.30;2.50;;;8.30;99.70;;;;;;5096183;28;20025;-81
2022/04/19 06:54:20;;;;;;;4.03;2.50;;;8.30;99.30;;;;;;5094811;28;20028;-81
2022/04/19 06:56:46;;;;;;;4.22;2.60;;;8.40;99.20;;;;;;5095972;28;20051;-81
2022/04/19 06:59:12;;;;;;;5.03;2.65;;;8.50;99.20;;;;;;5095335;28;20488;-80
2022/04/19 07:01:40;;;;;;;7.53;2.60;;;8.60;99.00;;;;;;5095077;28;20354;-79
2022/04/19 07:04:08;;;;;;;4.65;2.60;;;8.60;98.90;;;;;;5095226;28;20055;-80
2022/04/19 07:06:34;;;;;;;4.65;2.30;;;8.60;98.70;;;;;;5095527;28;20093;-80
2022/04/19 07:08:59;;;;;;;5.80;2.80;;;8.70;99.00;;;;;;5095068;28;20028;-80
2022/04/19 07:11:25;;;;;;;5.03;2.50;;;8.70;98.40;;;;;;5095624;28;20465;-81
2022/04/19 07:13:51;;;;;;;5.25;2.53;;;8.80;98.40;;;;;;5095234;28;20529;-82
2022/04/19 07:16:17;;;;;;;4.97;2.28;;;8.90;98.40;;;;;;5095066;28;20047;-82
2022/04/19 07:18:43;;;;;;;6.88;2.78;;;9.00;98.10;;;;;;5094904;28;20032;-81
2022/04/19 07:26:45;;;;;;;3.97;2.70;;;9.20;97.60;;;;;;5095305;28;20031;-81
2022/04/19 07:29:12;;;;;;;6.85;2.40;;;9.30;97.80;;;;;;5094837;28;20028;-82
2022/04/19 07:31:42;;;;;;;3.58;2.40;;;9.30;97.40;;;;;;5094076;28;20376;-82
2022/04/19 07:34:09;;;;;;;2.92;2.25;;;9.30;97.10;;;;;;5090147;28;20081;-88
2022/04/19 07:36:41;;;;;;;4.55;2.20;;;9.30;97.40;;;;;;5097017;28;20070;-87
2022/04/19 07:39:12;;;;;;;5.60;2.45;;;9.40;97.40;;;;;;5113921;28;20020;-87
2022/04/19 07:41:39;;;;;;;4.70;2.38;;;9.40;97.00;;;;;;5095234;28;20461;-86
2022/04/19 07:44:08;;;;;;;5.97;2.40;;;9.50;96.90;;;;;;5095546;28;20531;-85
2022/04/19 07:46:45;;;;;;;4.22;2.22;;;9.50;96.70;;;;;;5095193;28;20024;-85
2022/04/19 07:49:11;;;;;;;5.10;2.45;;;9.60;97.10;;;;;;5096912;28;20028;-87
2022/04/19 07:51:37;;;;;;;7.65;2.58;;;9.60;96.60;;;;;;5095770;28;20457;-86
2022/04/19 07:54:03;;;;;;;14.35;3.78;;;9.70;96.40;;;;;;5097608;28;20024;-86
2022/04/19 07:56:29;;;;;;;8.20;3.30;;;9.80;96.30;;;;;;5094868;28;20056;-86
2022/04/19 07:58:55;;;;;;;6.57;2.72;;;9.90;96.00;;;;;;5096481;28;20035;-86
2022/04/19 08:01:24;;;;;;;4.25;2.72;;;9.90;95.80;;;;;;5090611;28;20024;-86
2022/04/19 08:03:50;;;;;;;4.60;2.20;;;10.00;96.20;;;;;;5092351;28;20028;-87
2022/04/19 08:06:16;;;;;;;6.53;2.72;;;10.10;95.90;;;;;;5091330;28;20028;-87
2022/04/19 08:08:43;;;;;;;2.90;2.30;;;10.10;95.40;;;;;;5091228;28;20030;-89
2022/04/19 08:11:09;;;;;;;4.72;3.00;;;10.10;95.10;;;;;;5093133;28;20403;-81
2022/04/19 08:13:35;;;;;;;3.30;2.20;;;10.10;95.10;;;;;;5093411;28;20074;-82
2022/04/19 08:16:01;;;;;;;4.10;2.33;;;10.30;95.50;;;;;;5093345;28;20384;-87
2022/04/19 08:18:27;;;;;;;5.53;2.42;;;10.30;95.10;;;;;;5092282;28;20119;-86
2022/04/19 08:20:53;;;;;;;5.00;2.55;;;10.30;95.00;;;;;;5093117;28;20036;-87
2022/04/19 08:23:18;;;;;;;4.97;2.30;;;10.40;94.90;;;;;;5093039;28;20036;-87
2022/04/19 08:25:48;;;;;;;4.13;2.30;;;10.40;94.60;;;;;;5094488;28;20032;-87
2022/04/19 08:28:13;;;;;;;6.05;2.40;;;10.50;94.60;;;;;;5093934;28;20469;-87
2022/04/19 08:30:39;;;;;;;5.03;2.50;;;10.40;94.30;;;;;;5093597;28;20024;-88
2022/04/19 08:33:05;;;;;;;6.85;2.33;;;10.60;93.60;;;;;;5093371;28;20035;-86
2022/04/19 08:35:46;;;;;;;6.68;2.40;;;10.70;93.80;;;;;;5092809;28;20020;-86
2022/04/19 08:38:11;;;;;;;4.93;2.53;;;10.70;93.70;;;;;;5090981;28;20065;-87
2022/04/19 08:40:37;;;;;;;3.85;2.40;;;10.70;93.50;;;;;;5092328;28;20024;-86
2022/04/19 08:43:03;;;;;;;5.03;2.80;;;10.70;93.70;;;;;;5092918;28;20036;-87
2022/04/19 08:45:29;;;;;;;4.18;2.25;;;10.80;93.40;;;;;;5090531;28;20036;-82
2022/04/19 08:47:57;;;;;;;3.72;2.08;;;10.80;93.40;;;;;;5089916;28;20034;-82
2022/04/19 08:50:23;;;;;;;5.15;1.90;;;10.90;93.20;;;;;;5089709;28;20031;-82
2022/04/19 08:57:29;;;;;;;4.47;2.22;;;10.90;92.90;;;;;;5090150;28;20384;-81
2022/04/19 08:58:20;;;;;;;3.13;2.05;;;11.10;92.00;;;;;;5093335;28;20178;-84
2022/04/19 09:00:45;;;;;;;3.55;2.20;;;11.10;91.80;;;;;;5093424;28;20088;-82
2022/04/19 09:03:11;;;;;;;4.68;2.17;;;11.20;91.40;;;;;;5080440;28;20555;-83
2022/04/19 09:05:52;;;;;;;5.78;2.20;;;11.30;91.20;;;;;;5071492;28;20032;-83
2022/04/19 09:08:18;;;;;;;5.00;1.88;;;11.40;90.60;;;;;;5073444;28;20043;-87
2022/04/19 09:10:44;;;;;;;5.88;2.17;;;11.40;90.60;;;;;;5071640;28;20075;-84
2022/04/19 09:13:11;;;;;;;6.63;1.92;;;11.50;90.40;;;;;;5072359;28;20028;-85
2022/04/19 09:15:38;;;;;;;6.82;2.05;;;11.60;90.20;;;;;;5072955;28;20078;-85
2022/04/19 09:18:26;;;;;;;3.72;1.90;;;11.80;90.60;;;;;;5072032;28;20070;-80
2022/04/19 09:20:52;;;;;;;5.00;1.80;;;11.80;90.30;;;;;;5071790;28;20027;-85
2022/04/19 09:23:19;;;;;;;3.63;2.22;;;11.90;88.40;;;;;;5071621;28;20040;-84
2022/04/19 09:25:45;;;;;;;7.22;1.90;;;12.00;87.90;;;;;;5072886;28;20452;-83
2022/04/19 09:28:18;;;;;;;5.18;1.80;;;12.10;88.20;;;;;;5072870;28;20067;-83
2022/04/19 09:30:58;;;;;;;3.65;1.70;;;12.00;87.00;;;;;;5069145;28;20539;-85
2022/04/19 09:33:26;;;;;;;5.22;1.98;;;12.10;86.60;;;;;;5083139;28;20074;-81
2022/04/19 09:35:59;;;;;;;4.05;2.28;;;12.20;86.50;;;;;;5089618;28;20028;-83
2022/04/19 09:38:41;;;;;;;3.25;1.90;;;12.30;84.80;;;;;;5090317;28;20087;-84
2022/04/19 09:41:09;;;;;;;3.03;1.80;;;12.30;84.30;;;;;;5090540;28;20028;-83
2022/04/19 09:43:35;;;;;;;2.95;1.77;;;12.40;84.50;;;;;;5089149;28;20127;-85
2022/04/19 09:46:03;;;;;;;4.25;1.88;;;12.40;83.20;;;;;;5090653;28;20431;-86
2022/04/19 09:48:30;;;;;;;4.68;1.90;;;12.50;81.60;;;;;;5089373;28;20122;-85
2022/04/19 09:51:02;;;;;;;6.03;2.22;;;12.60;80.70;;;;;;5090252;28;20039;-85
2022/04/19 09:53:39;;;;;;;5.18;2.22;;;12.60;79.00;;;;;;5090355;28;20032;-87
2022/04/19 09:56:09;;;;;;;3.47;1.85;;;12.70;78.10;;;;;;5089232;28;20063;-87
2022/04/19 09:58:36;;;;;;;4.05;1.83;;;12.70;77.70;;;;;;5089537;28;20536;-85
2022/04/19 10:01:03;;;;;;;6.25;2.17;;;12.80;76.70;;;;;;5078749;28;20037;-83
2022/04/19 10:08:59;;;;;;;6.03;1.92;;;13.10;74.00;;;;;;5093728;28;20080;-85
2022/04/19 10:11:28;;;;;;;4.10;2.10;;;13.20;72.10;;;;;;5092894;28;20115;-84
2022/04/19 10:13:56;;;;;;;3.53;1.92;;;13.30;71.20;;;;;;5093105;28;20036;-92
2022/04/19 10:16:22;;;;;;;3.08;1.63;;;13.40;69.10;;;;;;5093853;28;20024;-82
2022/04/19 10:18:47;;;;;;;3.13;1.88;;;13.50;68.30;;;;;;5098003;28;20487;-87
2022/04/19 10:21:18;;;;;;;9.57;2.65;;;13.50;65.60;;;;;;5099957;28;20032;-87
2022/04/19 10:23:45;;;;;;;9.77;3.60;;;13.50;63.70;;;;;;5098575;28;20035;-85
2022/04/19 10:26:24;;;;;;;9.32;3.72;;;13.60;64.30;;;;;;5099061;28;20023;-84
2022/04/19 10:28:52;;;;;;;5.07;2.83;;;13.70;64.20;;;;;;5098761;28;20035;-84
2022/04/19 10:32:04;;;;;;;6.18;2.20;;;13.70;64.00;;;;;;5098325;28;20031;-86
2022/04/19 10:34:33;;;;;;;3.40;2.33;;;13.70;62.40;;;;;;5078656;28;20056;-85
2022/04/19 10:37:19;;;;;;;3.53;2.20;;;13.70;62.50;;;;;;5076905;28;20039;-84
2022/04/19 10:39:47;;;;;;;2.80;1.73;;;13.90;61.30;;;;;;5077919;28;20024;-84
2022/04/19 10:42:28;;;;;;;3.50;1.70;;;13.90;60.90;;;;;;5077556;28;20043;-85
2022/04/19 10:44:55;;;;;;;4.30;2.33;;;13.90;60.00;;;;;;5078937;28;20031;-83
2022/04/19 10:47:23;;;;;;;4.88;1.92;;;14.10;60.20;;;;;;5079055;28;20025;-83
2022/04/19 10:50:05;;;;;;;3.60;2.03;;;14.20;60.30;;;;;;5077901;28;20074;-84
2022/04/19 10:52:40;;;;;;;5.70;1.77;;;14.20;60.10;;;;;;5079483;28;20040;-83
2022/04/19 10:55:11;;;;;;;2.92;1.67;;;14.30;57.00;;;;;;5078873;28;20024;-82
2022/04/19 11:00:34;;;;;;;3.63;1.55;;;14.30;58.70;;;;;;5094785;28;20086;-82
2022/04/19 11:03:02;;;;;;;3.05;1.90;;;14.40;60.00;;;;;;5091126;28;20138;-83
2022/04/19 11:05:43;;;;;;;5.63;1.83;;;14.40;57.80;;;;;;5090127;28;20024;-82
2022/04/19 11:08:27;;;;;;;3.37;1.93;;;14.50;57.30;;;;;;5081400;28;20492;-82
2022/04/19 11:10:55;;;;;;;3.00;1.85;;;14.60;57.10;;;;;;5092057;28;20024;-84
2022/04/19 11:13:29;;;;;;;4.13;1.88;;;14.70;56.10;;;;;;5091710;28;20067;-85
2022/04/19 11:15:59;;;;;;;3.75;1.77;;;14.90;56.30;;;;;;5092101;28;20469;-85
2022/04/19 11:18:26;;;;;;;3.08;1.85;;;14.90;55.70;;;;;;5092463;28;20032;-81
2022/04/19 11:21:03;;;;;;;6.05;1.90;;;14.90;54.70;;;;;;5091406;28;20032;-81
2022/04/19 11:23:40;;;;;;;5.82;2.10;;;14.90;55.50;;;;;;5077714;28;20419;-83
2022/04/19 11:26:08;;;;;;;2.25;1.40;;;15.00;54.30;;;;;;5091425;28;20030;-82
2022/04/19 11:28:34;;;;;;;3.80;1.60;;;15.00;54.90;;;;;;5082705;28;20028;-84
2022/04/19 11:31:00;;;;;;;3.50;2.15;;;15.20;54.50;;;;;;5087052;28;20028;-80
2022/04/19 11:33:34;;;;;;;4.68;2.00;;;15.30;54.60;;;;;;5089741;28;20089;-82
2022/04/19 11:36:16;;;;;;;4.07;1.83;;;15.30;55.70;;;;;;5090906;28;20024;-81
2022/04/19 11:38:43;;;;;;;;;;;15.50;53.30;;;;;;5089559;28;20032;-86
2022/04/19 11:46:59;;;;;;;2.80;1.80;;;15.70;52.20;;;;;;5066357;28;20115;-84
2022/04/19 11:49:28;;;;;;;3.30;1.90;;;15.90;53.50;;;;;;5072907;28;20126;-84
2022/04/19 11:51:59;;;;;;;5.07;2.13;;;16.00;55.90;;;;;;5079982;28;20028;-84
2022/04/19 11:54:27;;;;;;;2.42;1.50;;;16.00;54.90;;;;;;5090659;28;20162;-84
2022/04/19 11:56:55;;;;;;;3.97;1.55;;;16.10;57.00;;;;;;5090367;28;20052;-85
2022/04/19 11:59:26;;;;;;;3.65;2.08;;;16.20;57.00;;;;;;5077013;28;20488;-84
2022/04/19 12:01:52;;;;;;;3.25;1.80;;;16.20;52.40;;;;;;5079928;28;20043;-85
2022/04/19 12:04:18;;;;;;;5.72;2.03;;;16.50;52.00;;;;;;5092658;28;20036;-85
2022/04/19 12:06:54;;;;;;;3.45;1.80;;;16.40;50.00;;;;;;5090306;28;20088;-85
2022/04/19 12:09:20;;;;;;;5.63;1.65;;;16.50;49.40;;;;;;5090550;28;20028;-84
2022/04/19 12:11:47;;;;;;;4.07;1.80;;;16.50;51.10;;;;;;5090644;28;20172;-84
2022/04/19 12:14:30;;;;;;;3.55;1.88;;;16.60;49.80;;;;;;5092059;28;20032;-84
2022/04/19 12:17:01;;;;;;;3.50;1.92;;;16.80;45.90;;;;;;5091011;28;20072;-84
2022/04/19 12:19:39;;;;;;;3.30;1.60;;;16.80;47.00;;;;;;5075703;28;20055;-86
2022/04/19 12:22:24;;;;;;;4.70;1.88;;;17.00;46.90;;;;;;5092697;28;20284;-85
2022/04/19 12:24:58;;;;;;;2.45;1.40;;;17.20;46.50;;;;;;5091415;28;20591;-85
2022/04/19 12:27:28;;;;;;;2.38;1.50;;;17.40;45.00;;;;;;5091870;28;20020;-84
2022/04/19 12:30:03;;;;;;;4.20;1.50;;;17.50;43.70;;;;;;5078532;28;20028;-85
2022/04/19 12:32:59;;;;;;;2.80;1.42;;;17.60;41.70;;;;;;5090340;28;20028;-85
2022/04/19 12:35:33;;;;;;;2.78;1.33;;;17.80;41.50;;;;;;5073888;28;20107;-85
2022/04/19 12:38:16;;;;;;;3.38;1.50;;;18.00;41.40;;;;;;5090637;28;20039;-89
2022/04/19 12:40:43;;;;;;;4.00;1.60;;;18.30;42.80;;;;;;5090849;28;20401;-88
2022/04/19 12:43:10;;;;;;;4.60;1.88;;;18.50;41.10;;;;;;5089847;28;20036;-89
2022/04/19 12:45:38;;;;;;;2.10;1.40;;;18.70;42.60;;;;;;5091125;28;20047;-87
2022/04/19 12:48:07;;;;;;;5.50;2.00;;;18.90;40.70;;;;;;5091160;28;20058;-88
2022/04/19 12:50:33;;;;;;;5.63;1.80;;;19.10;40.90;;;;;;5089735;28;20556;-87
2022/04/19 12:52:59;;;;;;;3.65;1.92;;;19.30;41.40;;;;;;5090352;28;20032;-89
2022/04/19 12:58:49;;;;;;;3.28;1.60;;;19.60;43.80;;;;;;5081312;28;20075;-88
2022/04/19 13:01:15;;;;;;;2.95;1.88;;;19.80;41.30;;;;;;5089415;28;20090;-88
2022/04/19 13:03:40;;;;;;;3.10;2.00;;;19.90;40.20;;;;;;5089624;28;20081;-88
2022/04/19 13:14:20;;;;;;;5.18;2.17;;;20.50;38.40;;;;;;5069873;28;20063;-88
2022/04/19 13:16:46;;;;;;;4.82;2.30;;;20.90;37.90;;;;;;5090634;28;20055;-87
2022/04/19 13:19:13;;;;;;;4.30;2.03;;;21.40;38.20;;;;;;5089667;28;20058;-87
2022/04/19 13:21:39;;;;;;;4.28;1.90;;;21.80;37.40;;;;;;5089652;28;20028;-88
2022/04/19 13:24:06;;;;;;;5.40;2.20;;;22.10;36.60;;;;;;5089759;28;20039;-85
2022/04/19 13:26:32;;;;;;;3.65;2.53;;;22.60;37.60;;;;;;5088704;28;20032;-82
2022/04/19 13:28:58;;;;;;;5.75;1.85;;;23.20;37.60;;;;;;5078774;28;20119;-83
2022/04/19 13:31:23;;;;;;;4.30;2.00;;;23.70;34.80;;;;;;5089564;28;20028;-85
2022/04/19 13:33:50;;;;;;;3.33;2.03;;;24.10;34.90;;;;;;5088001;28;20473;-84
2022/04/19 13:36:16;;;;;;;3.88;2.42;;;24.40;34.60;;;;;;5089146;28;20123;-84
2022/04/19 13:38:43;;;;;;;7.10;2.90;;;24.50;33.40;;;;;;5090439;28;20171;-84
2022/04/19 13:41:10;;;;;;;6.13;2.67;;;24.50;33.80;;;;;;5089537;28;20032;-84
2022/04/19 13:43:37;;;;;;;5.80;2.97;;;24.60;33.10;;;;;;5092684;28;20497;-85
2022/04/19 13:46:03;;;;;;;5.93;3.50;;;24.50;33.50;;;;;;5094172;28;20441;-86